Time;durP1;ratioP1;P1;durP2;ratioP2;P2;SDS_P1;SDS_P2;PMS_P1;PMS_P2;Temp;Humidity;BMP_temperature;BMP_pressure;BME280_temperature;BME280_humidity;BME280_pressure;Samples;Min_cycle;Max_cycle;Signal;HPM_P1;HPM_P2
2023/01/09 00:01:14;;;;;;;62.63;60.22;;;5.40;97.50;;;;;;5050567;28;20045;-76
2023/01/09 00:03:40;;;;;;;64.70;62.20;;;5.40;97.50;;;;;;5051083;28;20026;-77
2023/01/09 00:06:06;;;;;;;65.15;62.65;;;5.40;97.50;;;;;;5052838;28;20025;-76
2023/01/09 00:08:31;;;;;;;68.05;65.45;;;5.40;97.50;;;;;;5050382;28;20030;-76
2023/01/09 00:10:57;;;;;;;67.88;65.28;;;5.40;97.50;;;;;;5042849;28;20029;-75
2023/01/09 00:13:23;;;;;;;67.57;65.07;;;5.40;97.50;;;;;;5037379;28;20434;-75
2023/01/09 00:15:48;;;;;;;65.78;63.30;;;5.30;97.70;;;;;;5034567;28;20051;-76
2023/01/09 00:18:14;;;;;;;64.47;62.08;;;5.40;97.60;;;;;;5018268;28;20486;-76
2023/01/09 00:20:40;;;;;;;60.70;58.40;;;5.30;97.60;;;;;;5038847;28;20036;-76
2023/01/09 00:23:06;;;;;;;55.35;53.25;;;5.40;97.60;;;;;;5043318;28;20064;-76
2023/01/09 00:25:32;;;;;;;53.53;51.53;;;5.40;97.70;;;;;;5042276;28;20037;-76
2023/01/09 00:27:57;;;;;;;;;;;5.40;97.80;;;;;;5030457;28;20299;-78
2023/01/09 00:30:23;;;;;;;44.97;43.28;;;5.50;97.80;;;;;;5027839;28;19917;-77
2023/01/09 00:32:49;;;;;;;42.40;40.80;;;5.60;97.80;;;;;;5028838;28;20049;-77
2023/01/09 00:35:17;;;;;;;40.70;39.20;;;5.70;97.80;;;;;;5027365;28;20096;-77
2023/01/09 00:37:43;;;;;;;37.85;36.45;;;5.80;97.80;;;;;;5028036;28;20200;-75
2023/01/09 00:40:09;;;;;;;37.10;35.70;;;5.80;97.80;;;;;;5027870;28;20052;-75
2023/01/09 00:42:36;;;;;;;37.53;36.13;;;5.90;97.80;;;;;;5026915;28;20037;-76
2023/01/09 00:45:10;;;;;;;39.08;37.58;;;6.00;97.90;;;;;;5029116;28;20112;-75
2023/01/09 00:47:39;;;;;;;35.72;34.38;;;6.00;97.80;;;;;;5029010;28;20018;-75
2023/01/09 00:50:10;;;;;;;36.42;35.03;;;6.10;97.80;;;;;;5029284;28;20022;-75
2023/01/09 00:52:38;;;;;;;35.35;34.05;;;6.10;97.90;;;;;;5029041;28;20025;-75
2023/01/09 00:55:05;;;;;;;36.05;34.65;;;6.20;98.00;;;;;;5027701;28;20458;-75
2023/01/09 00:57:31;;;;;;;35.53;34.20;;;6.40;98.00;;;;;;5028954;28;20102;-75
2023/01/09 00:59:58;;;;;;;36.53;35.13;;;6.50;98.00;;;;;;5027623;28;20033;-76
2023/01/09 01:02:24;;;;;;;37.20;35.80;;;6.70;98.00;;;;;;5027450;28;20041;-75
2023/01/09 01:07:37;;;;;;;36.63;35.22;;;6.80;97.90;;;;;;5029113;28;20047;-75
2023/01/09 01:10:09;;;;;;;38.25;36.85;;;6.90;97.80;;;;;;5027609;28;20032;-76
2023/01/09 01:12:35;;;;;;;38.88;37.38;;;7.00;97.80;;;;;;5028651;28;20026;-75
2023/01/09 01:15:01;;;;;;;42.50;40.90;;;7.00;97.80;;;;;;5027595;28;20059;-75
2023/01/09 01:17:27;;;;;;;45.22;43.53;;;7.10;97.80;;;;;;5028506;28;20037;-76
2023/01/09 01:19:52;;;;;;;42.08;40.47;;;7.10;97.80;;;;;;5027324;28;20036;-75
2023/01/09 01:22:18;;;;;;;42.53;40.92;;;7.10;97.80;;;;;;5028392;28;20029;-75
2023/01/09 01:24:44;;;;;;;45.55;43.85;;;7.10;97.80;;;;;;5028363;28;20470;-75
2023/01/09 01:27:09;;;;;;;46.10;44.40;;;7.10;97.80;;;;;;5027041;28;20112;-75
2023/01/09 01:29:35;;;;;;;47.28;45.47;;;7.10;97.80;;;;;;5027025;28;20053;-75
2023/01/09 01:32:01;;;;;;;51.55;49.65;;;7.20;97.80;;;;;;4994414;28;20498;-75
2023/01/09 01:34:28;;;;;;;49.45;47.63;;;7.10;97.70;;;;;;5028168;28;20037;-75
2023/01/09 01:36:54;;;;;;;50.17;48.28;;;7.10;97.70;;;;;;5026796;28;20477;-75
2023/01/09 01:39:19;;;;;;;51.72;49.83;;;7.20;97.80;;;;;;5028712;28;20032;-75
2023/01/09 01:41:45;;;;;;;53.45;51.45;;;7.20;97.80;;;;;;5010573;28;20091;-76
2023/01/09 01:44:48;;;;;;;55.85;53.75;;;7.20;97.80;;;;;;5010474;28;20099;-76
2023/01/09 01:47:16;;;;;;;61.40;59.10;;;7.20;97.80;;;;;;5027943;28;20080;-76
2023/01/09 01:49:42;;;;;;;62.10;59.80;;;7.20;97.70;;;;;;5028066;28;20026;-75
2023/01/09 01:52:07;;;;;;;63.30;60.90;;;7.20;97.80;;;;;;5027780;28;20033;-76
2023/01/09 01:54:33;;;;;;;65.78;63.28;;;7.20;97.80;;;;;;5027930;28;20323;-75
2023/01/09 01:57:02;;;;;;;69.50;66.90;;;7.20;97.80;;;;;;5027937;28;20056;-75
2023/01/09 01:59:30;;;;;;;68.97;66.38;;;7.20;97.80;;;;;;5028119;28;20531;-75
2023/01/09 02:01:59;;;;;;;73.13;70.32;;;7.30;97.80;;;;;;5028014;28;20062;-75
2023/01/09 02:04:25;;;;;;;77.57;74.68;;;7.30;97.80;;;;;;5027966;28;20033;-76
2023/01/09 02:06:52;;;;;;;;;;;7.20;97.70;;;;;;5010788;28;20541;-75
2023/01/09 02:09:21;;;;;;;80.50;77.40;;;7.30;97.80;;;;;;5026668;28;19909;-75
2023/01/09 02:11:51;;;;;;;82.88;79.68;;;7.30;97.70;;;;;;5026641;28;20127;-76
2023/01/09 02:14:18;;;;;;;83.97;80.78;;;7.20;97.70;;;;;;5027795;28;20631;-75
2023/01/09 02:17:14;;;;;;;81.03;77.93;;;7.20;97.70;;;;;;5028276;28;20052;-75
2023/01/09 02:20:00;;;;;;;79.85;76.85;;;7.30;97.80;;;;;;5027976;28;20087;-75
2023/01/09 02:22:47;;;;;;;74.15;71.35;;;7.20;97.80;;;;;;5027613;28;20022;-75
2023/01/09 02:25:28;;;;;;;75.75;72.85;;;7.20;97.80;;;;;;5026438;28;20513;-76
2023/01/09 02:28:09;;;;;;;74.75;71.95;;;7.30;97.90;;;;;;5026738;28;20025;-76
2023/01/09 02:30:47;;;;;;;76.53;73.63;;;7.30;97.90;;;;;;5028026;28;20098;-76
2023/01/09 02:33:23;;;;;;;81.68;78.57;;;7.30;97.80;;;;;;5026404;28;20513;-76
2023/01/09 02:36:00;;;;;;;79.00;76.00;;;7.30;97.80;;;;;;5027918;28;20022;-76
2023/01/09 02:38:29;;;;;;;;;;;7.40;97.80;;;;;;5028252;28;20264;-76
2023/01/09 02:41:03;;;;;;;79.10;76.10;;;7.40;97.80;;;;;;5027707;28;19909;-75
2023/01/09 02:43:31;;;;;;;80.05;77.05;;;7.40;97.80;;;;;;5026782;28;20033;-75
2023/01/09 02:45:56;;;;;;;77.75;74.85;;;7.40;97.80;;;;;;5026379;28;20076;-76
2023/01/09 02:48:22;;;;;;;74.85;72.05;;;7.40;97.80;;;;;;5027475;28;20025;-75
2023/01/09 02:50:54;;;;;;;72.05;69.35;;;7.40;97.80;;;;;;4993692;28;20033;-76
2023/01/09 02:53:25;;;;;;;69.90;67.28;;;7.40;98.10;;;;;;5027787;28;20123;-75
2023/01/09 02:56:04;;;;;;;67.55;64.95;;;7.40;97.90;;;;;;5027766;28;20041;-75
2023/01/09 02:58:52;;;;;;;68.07;65.47;;;7.50;97.90;;;;;;5027642;28;20095;-76
2023/01/09 03:01:43;;;;;;;70.28;67.57;;;7.50;97.90;;;;;;5027386;28;20025;-76
2023/01/09 03:04:30;;;;;;;65.85;63.35;;;7.50;97.90;;;;;;5028058;28;20029;-76
2023/01/09 03:07:06;;;;;;;69.60;67.00;;;7.50;97.90;;;;;;5031111;28;20021;-76
2023/01/09 03:09:34;;;;;;;69.88;67.28;;;7.50;97.90;;;;;;5031141;28;20021;-76
2023/01/09 03:12:08;;;;;;;68.30;65.70;;;7.50;97.90;;;;;;5029527;28;20128;-74
2023/01/09 03:14:36;;;;;;;67.93;65.35;;;7.60;97.90;;;;;;5031047;28;20071;-73
2023/01/09 03:17:07;;;;;;;72.97;70.28;;;7.60;97.90;;;;;;5029552;28;20085;-74
2023/01/09 03:19:34;;;;;;;74.85;72.05;;;7.60;97.90;;;;;;5031108;28;20505;-73
2023/01/09 03:22:00;;;;;;;75.70;72.90;;;7.60;97.80;;;;;;5029420;28;20041;-76
2023/01/09 03:24:26;;;;;;;74.60;71.80;;;7.60;97.80;;;;;;5030592;28;20029;-76
2023/01/09 03:26:55;;;;;;;77.03;74.13;;;7.60;97.80;;;;;;5029597;28;20032;-74
2023/01/09 03:29:21;;;;;;;74.07;71.28;;;7.60;97.80;;;;;;5030587;28;20026;-74
2023/01/09 03:31:47;;;;;;;72.68;69.90;;;7.50;97.80;;;;;;5029421;28;20485;-75
2023/01/09 03:34:12;;;;;;;74.50;71.70;;;7.50;97.80;;;;;;5030433;28;20494;-75
2023/01/09 03:36:38;;;;;;;75.50;72.63;;;7.50;97.80;;;;;;5030412;28;20025;-75
2023/01/09 03:39:04;;;;;;;77.75;74.82;;;7.50;97.80;;;;;;5030453;28;20052;-75
2023/01/09 03:41:29;;;;;;;75.57;72.68;;;7.50;97.80;;;;;;5029279;28;20060;-75
2023/01/09 03:43:55;;;;;;;74.82;72.03;;;7.40;97.80;;;;;;5012672;28;20029;-74
2023/01/09 03:46:21;;;;;;;74.88;72.07;;;7.40;97.70;;;;;;5029083;28;20026;-75
2023/01/09 03:48:46;;;;;;;69.13;66.53;;;7.40;97.70;;;;;;5012649;28;20073;-74
2023/01/09 03:51:12;;;;;;;66.95;64.45;;;7.40;97.80;;;;;;5030311;28;20390;-75
2023/01/09 03:53:38;;;;;;;71.25;68.55;;;7.40;97.80;;;;;;5029111;28;20034;-74
2023/01/09 03:56:04;;;;;;;75.35;72.55;;;7.30;97.70;;;;;;5028394;28;20051;-75
2023/01/09 03:58:30;;;;;;;75.70;72.80;;;7.30;97.80;;;;;;5031326;28;20077;-75
2023/01/09 04:01:02;;;;;;;77.95;75.00;;;7.30;97.80;;;;;;5012569;28;20069;-75
2023/01/09 04:03:28;;;;;;;79.43;76.43;;;7.30;97.80;;;;;;5030137;28;20109;-75
2023/01/09 04:05:54;;;;;;;74.60;71.80;;;7.30;97.80;;;;;;5030111;28;20100;-75
2023/01/09 04:08:20;;;;;;;68.28;65.68;;;7.30;97.80;;;;;;5030285;28;20029;-75
2023/01/09 04:10:49;;;;;;;67.15;64.65;;;7.30;97.80;;;;;;5028373;28;20021;-76
2023/01/09 04:13:15;;;;;;;63.90;61.50;;;7.30;97.80;;;;;;5012355;28;20045;-75
2023/01/09 04:15:41;;;;;;;62.10;59.80;;;7.30;97.90;;;;;;5028277;28;20513;-75
2023/01/09 04:18:07;;;;;;;59.95;57.70;;;7.30;97.90;;;;;;5011958;28;20052;-75
2023/01/09 04:20:33;;;;;;;58.50;56.30;;;7.30;97.80;;;;;;5029782;28;20026;-76
2023/01/09 04:22:59;;;;;;;56.30;54.20;;;7.30;97.70;;;;;;5028405;28;20478;-76
2023/01/09 04:25:25;;;;;;;58.35;56.15;;;7.20;97.70;;;;;;5011811;28;20037;-75
2023/01/09 04:27:52;;;;;;;58.20;56.00;;;7.00;97.60;;;;;;5028198;28;20075;-75
2023/01/09 04:30:18;;;;;;;57.75;55.58;;;7.00;97.70;;;;;;5029475;28;20040;-75
2023/01/09 04:32:43;;;;;;;59.72;57.53;;;6.90;97.70;;;;;;5029220;28;20018;-76
2023/01/09 04:35:09;;;;;;;58.65;56.45;;;6.80;97.80;;;;;;5011660;28;20389;-76
2023/01/09 04:37:36;;;;;;;56.97;54.88;;;6.80;97.90;;;;;;5028438;28;20111;-75
2023/01/09 04:40:09;;;;;;;59.65;57.45;;;6.80;97.80;;;;;;5028058;28;20029;-76
2023/01/09 04:42:36;;;;;;;61.22;58.92;;;6.80;97.70;;;;;;5029141;28;20040;-75
2023/01/09 04:45:02;;;;;;;64.60;62.20;;;6.70;97.70;;;;;;5027892;28;20026;-76
2023/01/09 04:47:29;;;;;;;65.55;63.13;;;6.60;97.60;;;;;;5027877;28;20041;-75
2023/01/09 04:49:56;;;;;;;69.95;67.35;;;6.50;97.60;;;;;;5028870;28;20406;-76
2023/01/09 04:52:21;;;;;;;69.13;66.53;;;6.40;97.60;;;;;;5028901;28;20032;-76
2023/01/09 04:54:47;;;;;;;68.45;65.95;;;6.30;97.70;;;;;;5027545;28;20034;-75
2023/01/09 04:57:13;;;;;;;69.80;67.20;;;6.30;97.80;;;;;;5028835;28;20082;-76
2023/01/09 04:59:38;;;;;;;72.75;70.05;;;6.20;97.80;;;;;;5027495;28;20600;-75
2023/01/09 05:02:04;;;;;;;68.60;66.00;;;6.30;97.90;;;;;;5028627;28;20044;-76
2023/01/09 05:04:30;;;;;;;67.72;65.22;;;6.30;97.90;;;;;;5011160;28;20121;-76
2023/01/09 05:06:56;;;;;;;70.40;67.80;;;6.30;97.80;;;;;;5028737;28;20037;-75
2023/01/09 05:09:21;;;;;;;71.75;69.05;;;6.30;97.70;;;;;;5027196;28;20026;-75
2023/01/09 05:11:48;;;;;;;69.15;66.55;;;6.20;97.70;;;;;;5028533;28;20034;-76
2023/01/09 05:14:14;;;;;;;;;;;6.10;97.70;;;;;;5029594;28;20020;-75
2023/01/09 05:16:39;;;;;;;72.65;69.95;;;6.10;97.70;;;;;;5028498;28;20015;-75
2023/01/09 05:19:05;;;;;;;75.55;72.75;;;6.10;97.60;;;;;;5028769;28;20041;-76
2023/01/09 05:21:31;;;;;;;74.07;71.28;;;6.00;97.70;;;;;;5011010;28;20111;-76
2023/01/09 05:23:57;;;;;;;72.82;70.07;;;6.00;97.70;;;;;;5028593;28;20404;-75
2023/01/09 05:26:23;;;;;;;73.35;70.60;;;5.90;97.70;;;;;;5027204;28;20060;-75
2023/01/09 05:28:50;;;;;;;;;;;5.90;97.70;;;;;;5028624;28;20021;-76
2023/01/09 05:31:16;;;;;;;69.70;67.10;;;5.80;97.70;;;;;;5028294;28;20361;-76
2023/01/09 05:33:41;;;;;;;67.90;65.35;;;5.80;97.70;;;;;;5028681;28;20034;-75
2023/01/09 05:36:07;;;;;;;63.25;60.85;;;5.70;97.60;;;;;;4994366;28;20035;-75
2023/01/09 05:38:33;;;;;;;64.18;61.78;;;5.70;97.70;;;;;;5027043;28;20033;-75
2023/01/09 05:40:59;;;;;;;62.22;59.88;;;5.70;97.70;;;;;;5026968;28;20079;-76
2023/01/09 05:43:24;;;;;;;62.90;60.50;;;5.70;97.70;;;;;;4994193;28;20096;-76
2023/01/09 05:45:50;;;;;;;59.97;57.70;;;5.60;97.70;;;;;;5010475;28;20039;-75
2023/01/09 05:48:16;;;;;;;60.70;58.40;;;5.60;97.70;;;;;;5010632;28;20482;-76
2023/01/09 05:50:42;;;;;;;62.13;59.83;;;5.60;97.70;;;;;;5010448;28;20029;-76
2023/01/09 05:53:07;;;;;;;60.50;58.20;;;5.60;97.70;;;;;;5026954;28;20030;-76
2023/01/09 05:55:33;;;;;;;58.28;56.08;;;5.60;97.70;;;;;;4994352;28;20033;-76
2023/01/09 05:57:59;;;;;;;58.25;56.05;;;5.60;97.70;;;;;;5026733;28;20503;-75
2023/01/09 06:00:25;;;;;;;59.30;57.10;;;5.60;97.70;;;;;;5026698;28;20030;-75
2023/01/09 06:02:50;;;;;;;59.28;57.08;;;5.60;97.80;;;;;;5026754;28;20049;-76
2023/01/09 06:05:16;;;;;;;57.55;55.35;;;5.60;97.70;;;;;;5027907;28;20040;-76
2023/01/09 06:07:42;;;;;;;56.53;54.42;;;5.60;97.70;;;;;;5010578;28;20068;-76
2023/01/09 06:10:10;;;;;;;56.78;54.67;;;5.50;97.70;;;;;;5026649;28;20102;-76
2023/01/09 06:12:36;;;;;;;53.95;51.95;;;5.60;97.80;;;;;;5010238;28;20032;-75
2023/01/09 06:15:03;;;;;;;53.95;51.95;;;5.60;97.80;;;;;;5028055;28;20037;-75
2023/01/09 06:17:29;;;;;;;51.65;49.75;;;5.60;97.80;;;;;;5027759;28;20056;-75
2023/01/09 06:19:54;;;;;;;50.25;48.35;;;5.60;97.80;;;;;;5027608;28;20029;-75
2023/01/09 06:22:20;;;;;;;51.40;49.50;;;5.60;97.80;;;;;;5027720;28;20155;-76
2023/01/09 06:24:46;;;;;;;52.30;50.30;;;5.60;97.80;;;;;;5027746;28;20029;-75
2023/01/09 06:27:12;;;;;;;48.05;46.25;;;5.60;97.80;;;;;;5026510;28;20063;-75
2023/01/09 06:29:38;;;;;;;50.63;48.72;;;5.60;97.80;;;;;;5026543;28;20030;-75
2023/01/09 06:32:04;;;;;;;47.58;45.78;;;5.50;97.80;;;;;;5026131;28;20060;-74
2023/01/09 06:34:29;;;;;;;50.45;48.55;;;5.50;97.70;;;;;;5010233;28;20030;-75
2023/01/09 06:36:55;;;;;;;48.10;46.30;;;5.50;97.80;;;;;;5009989;28;20048;-75
2023/01/09 06:39:21;;;;;;;47.40;45.60;;;5.50;97.80;;;;;;5027320;28;20030;-75
2023/01/09 06:41:46;;;;;;;43.20;41.60;;;5.50;97.70;;;;;;5014118;28;20123;-75
2023/01/09 06:44:12;;;;;;;39.38;37.88;;;5.50;97.70;;;;;;5031303;28;20497;-75
2023/01/09 06:46:38;;;;;;;43.35;41.75;;;5.50;97.80;;;;;;5013782;28;20029;-74
2023/01/09 06:49:04;;;;;;;44.00;42.35;;;5.50;97.80;;;;;;5030204;28;20482;-75
2023/01/09 06:51:30;;;;;;;42.92;41.33;;;5.50;97.80;;;;;;5030014;28;20026;-74
2023/01/09 06:53:55;;;;;;;42.35;40.75;;;5.50;97.80;;;;;;5030999;28;20037;-75
2023/01/09 06:56:21;;;;;;;40.67;39.17;;;5.40;97.70;;;;;;5030960;28;20115;-74
2023/01/09 06:58:47;;;;;;;42.78;41.17;;;5.40;97.70;;;;;;5013312;28;20067;-75
2023/01/09 07:01:13;;;;;;;42.20;40.60;;;5.40;97.70;;;;;;5029841;28;20053;-74
2023/01/09 07:03:38;;;;;;;42.65;41.05;;;5.40;97.70;;;;;;5029667;28;20032;-75
2023/01/09 07:06:04;;;;;;;39.55;38.05;;;5.40;97.70;;;;;;4996785;28;20037;-75
2023/01/09 07:08:30;;;;;;;40.97;39.47;;;5.40;97.70;;;;;;5031312;28;20036;-74
2023/01/09 07:10:56;;;;;;;38.72;37.25;;;5.40;97.80;;;;;;5029525;28;20303;-75
2023/01/09 07:13:22;;;;;;;40.70;39.20;;;5.40;97.80;;;;;;5029405;28;20541;-74
2023/01/09 07:15:48;;;;;;;37.92;36.53;;;5.40;97.80;;;;;;5029161;28;20034;-74
2023/01/09 07:18:14;;;;;;;38.25;36.85;;;5.40;97.70;;;;;;5029089;28;20029;-76
2023/01/09 07:20:41;;;;;;;36.80;35.40;;;5.40;97.70;;;;;;5029596;28;20033;-75
2023/01/09 07:23:11;;;;;;;38.40;37.00;;;5.40;97.90;;;;;;5030881;28;20071;-75
2023/01/09 07:25:38;;;;;;;39.53;38.03;;;5.40;97.70;;;;;;5030662;28;20033;-75
2023/01/09 07:28:04;;;;;;;39.47;37.97;;;5.40;97.90;;;;;;5030942;28;20017;-75
2023/01/09 07:30:30;;;;;;;37.53;36.13;;;5.30;97.70;;;;;;5030451;28;20033;-76
2023/01/09 07:32:55;;;;;;;38.28;36.88;;;5.30;97.70;;;;;;5029210;28;20034;-75
2023/01/09 07:35:21;;;;;;;39.08;37.58;;;5.30;97.80;;;;;;5030398;28;20506;-76
2023/01/09 07:37:47;;;;;;;36.95;35.55;;;5.30;97.70;;;;;;5028812;28;20418;-76
2023/01/09 07:40:12;;;;;;;38.72;37.22;;;5.30;97.70;;;;;;5028392;28;20034;-75
2023/01/09 07:42:38;;;;;;;37.60;36.20;;;5.30;97.80;;;;;;5030273;28;20046;-76
2023/01/09 07:45:05;;;;;;;38.17;36.78;;;5.30;97.80;;;;;;5012408;28;20037;-76
2023/01/09 07:47:30;;;;;;;35.60;34.28;;;5.30;97.70;;;;;;5030667;28;20115;-75
2023/01/09 07:49:56;;;;;;;35.28;33.97;;;5.30;97.70;;;;;;5012245;28;20061;-75
2023/01/09 07:52:22;;;;;;;35.03;33.72;;;5.30;97.70;;;;;;5029923;28;20535;-75
2023/01/09 07:54:48;;;;;;;35.75;34.40;;;5.30;97.80;;;;;;5028712;28;20540;-75
2023/01/09 07:57:14;;;;;;;34.60;33.30;;;5.30;97.70;;;;;;5028298;28;20064;-76
2023/01/09 07:59:39;;;;;;;33.00;31.70;;;5.20;97.70;;;;;;5029898;28;20045;-75
2023/01/09 08:02:06;;;;;;;32.67;31.45;;;5.20;97.70;;;;;;5028067;28;20452;-76
2023/01/09 08:04:31;;;;;;;32.22;31.02;;;5.20;97.70;;;;;;5029304;28;20107;-75
2023/01/09 08:06:57;;;;;;;29.10;28.00;;;5.20;97.70;;;;;;5028630;28;20474;-75
2023/01/09 08:09:23;;;;;;;29.70;28.60;;;5.20;97.70;;;;;;5011924;28;20065;-75
2023/01/09 08:11:49;;;;;;;29.40;28.30;;;5.20;97.70;;;;;;5011851;28;20545;-75
2023/01/09 08:14:15;;;;;;;29.83;28.73;;;5.20;97.70;;;;;;5029378;28;20444;-75
2023/01/09 08:16:41;;;;;;;26.85;25.85;;;5.10;97.70;;;;;;5029370;28;20018;-75
2023/01/09 08:19:07;;;;;;;26.23;25.23;;;5.20;97.70;;;;;;5011354;28;20055;-75
2023/01/09 08:21:32;;;;;;;25.77;24.77;;;5.20;97.80;;;;;;5029658;28;20025;-76
2023/01/09 08:23:58;;;;;;;24.98;23.98;;;5.20;97.80;;;;;;5029083;28;20523;-76
2023/01/09 08:26:24;;;;;;;24.83;23.83;;;5.20;97.80;;;;;;5011228;28;20034;-75
2023/01/09 08:28:49;;;;;;;25.67;24.67;;;5.20;97.80;;;;;;5029036;28;20033;-76
2023/01/09 08:31:15;;;;;;;27.13;26.10;;;5.20;97.80;;;;;;5027705;28;20029;-74
2023/01/09 08:33:42;;;;;;;25.42;24.42;;;5.20;97.70;;;;;;5028570;28;20033;-75
2023/01/09 08:36:08;;;;;;;24.75;23.75;;;5.20;97.90;;;;;;5027434;28;20034;-74
2023/01/09 08:38:34;;;;;;;23.67;22.77;;;5.20;97.70;;;;;;5028825;28;20048;-75
2023/01/09 08:47:04;;;;;;;24.00;23.10;;;5.20;97.70;;;;;;5027072;28;20478;-75
2023/01/09 08:49:14;;;;;;;25.15;24.15;;;5.20;97.80;;;;;;5028569;28;20036;-75
2023/01/09 08:51:39;;;;;;;25.80;24.80;;;5.20;97.70;;;;;;5028614;28;20382;-75
2023/01/09 08:54:05;;;;;;;23.63;22.73;;;5.20;97.70;;;;;;5026897;28;20029;-75
2023/01/09 08:56:31;;;;;;;24.10;23.20;;;5.20;97.70;;;;;;5026919;28;20060;-75
2023/01/09 08:58:56;;;;;;;26.13;25.13;;;5.20;97.70;;;;;;5027056;28;20093;-74
2023/01/09 09:01:22;;;;;;;23.48;22.58;;;5.20;97.70;;;;;;5027973;28;20147;-75
2023/01/09 09:03:48;;;;;;;26.17;25.17;;;5.20;97.70;;;;;;4993684;28;20124;-76
2023/01/09 09:06:13;;;;;;;25.00;24.00;;;5.30;97.80;;;;;;4993921;28;20468;-75
2023/01/09 09:08:39;;;;;;;23.70;22.80;;;5.30;97.70;;;;;;5016249;28;20025;-75
2023/01/09 09:11:05;;;;;;;25.60;24.60;;;5.30;97.70;;;;;;5032570;28;20057;-75
2023/01/09 09:13:31;;;;;;;24.20;23.25;;;5.30;97.70;;;;;;5039610;28;20021;-75
2023/01/09 09:15:56;;;;;;;22.48;21.58;;;5.30;97.70;;;;;;5040432;28;20102;-75
2023/01/09 09:18:22;;;;;;;22.80;21.90;;;5.30;97.80;;;;;;5017353;28;20041;-73
2023/01/09 09:20:48;;;;;;;22.13;21.23;;;5.30;97.90;;;;;;5041187;28;20041;-75
2023/01/09 09:23:13;;;;;;;21.92;21.02;;;5.40;98.00;;;;;;5015260;28;20041;-75
2023/01/09 09:25:39;;;;;;;20.88;20.08;;;5.60;98.00;;;;;;5028631;28;20021;-75
2023/01/09 09:28:06;;;;;;;21.60;20.70;;;5.70;97.90;;;;;;5036199;28;20025;-75
2023/01/09 09:30:31;;;;;;;;;;;5.70;97.70;;;;;;5038351;28;20410;-74
2023/01/09 09:32:57;;;;;;;23.75;22.85;;;5.70;97.70;;;;;;5038476;28;19904;-74
2023/01/09 09:35:23;;;;;;;23.38;22.48;;;5.70;97.60;;;;;;5039157;28;20124;-75
2023/01/09 09:37:57;;;;;;;22.17;21.27;;;5.60;97.60;;;;;;5033956;28;20119;-74
2023/01/09 09:40:32;;;;;;;21.17;20.38;;;5.60;97.70;;;;;;5038909;28;20021;-75
2023/01/09 09:46:31;;;;;;;16.75;16.05;;;5.90;98.20;;;;;;5049120;28;20044;-75
2023/01/09 09:49:03;;;;;;;;;;;6.20;98.30;;;;;;5030599;28;20026;-75
2023/01/09 09:51:42;;;;;;;14.10;13.50;;;6.50;98.30;;;;;;5041609;28;20010;-73
2023/01/09 09:54:23;;;;;;;12.15;11.65;;;6.80;98.20;;;;;;5036917;28;20021;-74
2023/01/09 09:56:55;;;;;;;12.30;11.80;;;7.10;98.30;;;;;;5046130;28;20068;-75
2023/01/09 09:59:23;;;;;;;12.60;12.00;;;7.40;98.30;;;;;;5034349;28;20079;-74
2023/01/09 10:02:03;;;;;;;13.55;12.95;;;7.60;97.90;;;;;;5048882;28;20075;-75
2023/01/09 10:04:32;;;;;;;15.35;14.68;;;7.60;97.60;;;;;;5036021;28;20108;-75
2023/01/09 10:07:08;;;;;;;15.15;14.55;;;7.50;97.50;;;;;;5040938;28;20014;-75
2023/01/09 10:09:50;;;;;;;14.88;14.27;;;7.50;97.60;;;;;;5039193;28;20020;-75
2023/01/09 10:12:26;;;;;;;14.10;13.50;;;7.40;97.70;;;;;;5041565;28;20043;-75
2023/01/09 10:14:53;;;;;;;14.50;13.90;;;7.30;97.60;;;;;;5032723;28;20062;-74
2023/01/09 10:17:48;;;;;;;15.75;15.05;;;7.30;97.60;;;;;;5032059;28;20083;-74
2023/01/09 10:20:35;;;;;;;15.90;15.20;;;7.20;97.70;;;;;;5038250;28;20435;-74
2023/01/09 10:23:33;;;;;;;15.52;14.82;;;7.20;97.70;;;;;;5040446;28;20422;-74
2023/01/09 10:26:02;;;;;;;16.73;16.02;;;7.10;97.60;;;;;;5034735;28;20082;-74
2023/01/09 10:28:30;;;;;;;16.13;15.43;;;7.00;97.60;;;;;;5032520;28;20438;-74
2023/01/09 10:31:12;;;;;;;16.40;15.70;;;7.00;97.60;;;;;;5038211;28;20021;-74
2023/01/09 10:34:13;;;;;;;15.40;14.73;;;6.90;97.80;;;;;;5044162;28;20021;-74
2023/01/09 10:36:53;;;;;;;16.60;15.90;;;6.90;97.80;;;;;;5039576;28;20112;-75
2023/01/09 10:39:25;;;;;;;16.80;16.10;;;6.90;97.70;;;;;;5043381;28;20036;-75
2023/01/09 10:42:16;;;;;;;16.17;15.48;;;6.90;97.70;;;;;;5035878;28;20071;-75
2023/01/09 10:44:58;;;;;;;12.93;12.32;;;7.00;97.90;;;;;;5039780;28;20025;-74
2023/01/09 10:47:31;;;;;;;12.90;12.30;;;7.20;98.20;;;;;;5035073;28;20040;-75
2023/01/09 10:49:58;;;;;;;12.80;12.20;;;7.30;98.00;;;;;;5039224;28;20108;-74
2023/01/09 10:52:38;;;;;;;13.63;13.02;;;7.30;97.90;;;;;;5022819;28;20021;-73
2023/01/09 10:55:13;;;;;;;13.90;13.30;;;7.30;97.80;;;;;;5043644;28;20043;-75
2023/01/09 10:57:40;;;;;;;12.25;11.73;;;7.30;97.90;;;;;;5041343;28;20044;-74
2023/01/09 11:00:13;;;;;;;11.15;10.65;;;7.30;98.10;;;;;;5045813;28;20026;-75
2023/01/09 11:02:38;;;;;;;8.15;7.75;;;7.30;97.90;;;;;;5041384;28;20028;-74
2023/01/09 11:05:04;;;;;;;5.78;5.47;;;7.60;98.70;;;;;;5040342;28;20029;-76
2023/01/09 11:07:40;;;;;;;5.25;4.95;;;8.20;99.10;;;;;;5042364;28;20029;-77
2023/01/09 11:10:10;;;;;;;4.60;4.30;;;8.60;98.90;;;;;;5034979;28;20021;-74
2023/01/09 11:12:37;;;;;;;4.00;3.70;;;9.10;98.80;;;;;;5032417;28;20040;-77
2023/01/09 11:15:29;;;;;;;3.22;3.03;;;9.40;98.90;;;;;;5034527;28;20120;-76
2023/01/09 11:18:17;;;;;;;2.53;2.33;;;10.00;99.00;;;;;;5046658;28;20131;-76
2023/01/09 11:20:42;;;;;;;;;;;10.50;98.90;;;;;;5048719;28;20018;-76
2023/01/09 11:23:23;;;;;;;2.72;2.53;;;10.70;98.50;;;;;;5041468;28;20281;-77
2023/01/09 11:25:55;;;;;;;2.95;2.75;;;10.60;98.20;;;;;;5037885;28;20032;-76
2023/01/09 11:28:21;;;;;;;2.38;2.17;;;10.80;98.50;;;;;;5044633;28;20017;-76
2023/01/09 11:31:05;;;;;;;1.65;1.55;;;11.00;98.60;;;;;;5036982;28;20525;-75
2023/01/09 11:33:35;;;;;;;1.35;1.25;;;11.30;98.80;;;;;;5040686;28;20021;-75
2023/01/09 11:36:04;;;;;;;1.00;1.00;;;11.60;98.70;;;;;;5038471;28;20028;-75
2023/01/09 11:38:38;;;;;;;0.70;0.70;;;11.80;98.70;;;;;;5042351;28;20025;-73
2023/01/09 11:41:05;;;;;;;0.57;0.57;;;12.00;98.60;;;;;;5045631;28;20029;-73
2023/01/09 11:43:38;;;;;;;0.40;0.40;;;12.10;98.60;;;;;;5041015;28;20032;-74
2023/01/09 11:46:10;;;;;;;0.35;0.35;;;12.10;98.70;;;;;;5039678;28;20052;-74
2023/01/09 11:48:55;;;;;;;0.30;0.30;;;12.20;98.50;;;;;;5032033;28;20565;-74
2023/01/09 11:51:30;;;;;;;0.20;0.20;;;12.20;98.40;;;;;;5039530;28;20036;-75
2023/01/09 11:54:14;;;;;;;0.20;0.20;;;12.10;98.40;;;;;;5038926;28;20017;-77
2023/01/09 11:56:40;;;;;;;0.13;0.13;;;12.20;98.70;;;;;;5039628;28;20121;-75
2023/01/09 11:59:16;;;;;;;;;;;12.30;98.70;;;;;;5034847;28;20029;-75
2023/01/09 12:02:21;;;;;;;0.20;0.20;;;12.30;98.50;;;;;;5039329;28;19904;-76
2023/01/09 12:05:33;;;;;;;0.10;0.10;;;12.30;98.60;;;;;;5030674;28;20071;-76
2023/01/09 12:08:05;;;;;;;0.05;0.05;;;12.50;98.80;;;;;;5003328;28;20038;-75
2023/01/09 12:10:46;;;;;;;0.20;0.20;;;12.40;98.40;;;;;;5035959;28;20033;-76
2023/01/09 12:13:12;;;;;;;0.22;0.22;;;12.30;98.40;;;;;;5042307;28;20032;-73
2023/01/09 12:15:50;;;;;;;0.20;0.20;;;12.10;98.30;;;;;;5045355;28;20025;-74
2023/01/09 12:18:39;;;;;;;0.10;0.10;;;12.10;98.50;;;;;;5040298;28;20039;-73
2023/01/09 12:21:19;;;;;;;0.10;0.10;;;12.10;98.70;;;;;;5034858;28;20029;-71
2023/01/09 12:23:53;;;;;;;0.10;0.10;;;12.10;98.70;;;;;;5038210;28;20021;-73
2023/01/09 12:26:32;;;;;;;0.00;0.00;;;12.10;98.70;;;;;;5041493;28;20731;-74
2023/01/09 12:29:16;;;;;;;0.10;0.10;;;12.00;98.50;;;;;;5044300;28;20019;-74
2023/01/09 12:32:03;;;;;;;0.20;0.20;;;11.70;98.10;;;;;;5040599;28;20017;-74
2023/01/09 12:34:37;;;;;;;0.10;0.10;;;11.50;98.40;;;;;;5038192;28;20025;-74
2023/01/09 12:37:35;;;;;;;0.10;0.10;;;11.40;98.40;;;;;;5036786;28;20030;-73
2023/01/09 12:40:33;;;;;;;0.15;0.15;;;11.20;98.10;;;;;;5042289;28;20025;-73
2023/01/09 12:43:07;;;;;;;0.17;0.17;;;10.80;97.80;;;;;;5029551;28;20037;-74
2023/01/09 12:45:59;;;;;;;0.10;0.10;;;10.50;97.70;;;;;;5037679;28;20041;-73
2023/01/09 12:48:34;;;;;;;0.20;0.20;;;10.10;97.80;;;;;;5029156;28;20029;-74
2023/01/09 12:51:24;;;;;;;0.20;0.20;;;9.90;97.90;;;;;;5043712;28;20019;-75
2023/01/09 12:53:57;;;;;;;0.20;0.20;;;9.70;98.00;;;;;;5037990;28;20021;-75
2023/01/09 12:56:31;;;;;;;0.30;0.30;;;9.60;98.00;;;;;;5043333;28;20095;-74
2023/01/09 12:59:07;;;;;;;0.20;0.20;;;9.50;98.00;;;;;;5031260;28;20041;-74
2023/01/09 13:01:47;;;;;;;0.30;0.30;;;9.40;98.10;;;;;;5040549;28;20029;-73
2023/01/09 13:04:23;;;;;;;0.20;0.20;;;9.30;98.10;;;;;;5029907;28;20038;-74
2023/01/09 13:06:55;;;;;;;0.20;0.20;;;9.30;98.10;;;;;;5031192;28;20029;-76